Time;durP1;ratioP1;P1;durP2;ratioP2;P2;SDS_P1;SDS_P2;PMS_P1;PMS_P2;Temp;Humidity;BMP_temperature;BMP_pressure;BME280_temperature;BME280_humidity;BME280_pressure;Samples;Min_cycle;Max_cycle;Signal;HPM_P1;HPM_P2
2022/09/23 00:01:10;;;;;;;12.07;5.20;;;;;;;-143.48;67.15;79190.28;5076376;28;20051;-35
2022/09/23 00:03:37;;;;;;;8.68;4.88;;;;;;;-143.48;67.32;79198.19;5076558;28;20063;-34
2022/09/23 00:06:11;;;;;;;7.90;4.90;;;;;;;-143.48;67.52;79204.16;5076116;28;20028;-36
2022/09/23 00:08:37;;;;;;;8.85;5.22;;;;;;;-143.48;67.42;79212.09;5076626;28;20042;-33
2022/09/23 00:11:08;;;;;;;8.02;5.20;;;;;;;-143.48;67.68;79200.19;5076101;28;20384;-36
2022/09/23 00:13:35;;;;;;;10.68;4.90;;;;;;;-143.48;67.28;79208.13;5075982;28;20021;-34
2022/09/23 00:16:10;;;;;;;8.82;4.95;;;;;;;-143.48;67.24;79206.13;5075759;28;20068;-34
2022/09/23 00:18:36;;;;;;;9.45;4.90;;;;;;;-143.48;66.97;79196.22;5076427;28;20025;-36
2022/09/23 00:21:07;;;;;;;18.42;7.70;;;;;;;-143.48;66.73;79202.16;5075790;28;20357;-34
2022/09/23 00:23:32;;;;;;;8.30;4.88;;;;;;;-143.48;67.06;79202.16;5076069;28;20070;-34
2022/09/23 00:26:01;;;;;;;7.78;5.15;;;;;;;-143.48;67.29;79204.16;5075759;28;20024;-34
2022/09/23 00:28:26;;;;;;;9.32;4.75;;;;;;;-143.48;67.39;79198.19;5075722;28;20032;-34
2022/09/23 00:30:52;;;;;;;8.80;5.00;;;;;;;-143.48;67.18;79204.16;5075662;28;20024;-35
2022/09/23 00:33:17;;;;;;;9.23;5.43;;;;;;;-143.48;67.42;79198.19;5074734;28;20108;-34
2022/09/23 00:35:42;;;;;;;7.13;4.70;;;;;;;-143.48;67.46;79202.16;5075520;28;20025;-34
2022/09/23 00:38:07;;;;;;;8.75;4.93;;;;;;;-143.48;67.70;79198.19;5075543;28;20533;-33
2022/09/23 00:40:33;;;;;;;10.30;4.72;;;;;;;-143.48;67.58;79202.16;5075480;28;20162;-33
2022/09/23 00:42:58;;;;;;;9.40;5.05;;;;;;;-143.48;67.61;79210.09;5075359;28;20103;-33
2022/09/23 00:45:24;;;;;;;9.35;5.07;;;;;;;-143.48;67.87;79214.06;5075563;28;20111;-35
2022/09/23 00:47:49;;;;;;;9.30;4.93;;;;;;;-143.48;68.18;79208.13;5075329;28;20035;-34
2022/09/23 00:50:17;;;;;;;9.00;4.63;;;;;;;-143.48;67.42;79214.06;5075791;28;20173;-36
2022/09/23 00:52:42;;;;;;;12.70;5.85;;;;;;;-143.48;67.67;79212.09;5075532;28;20028;-35
2022/09/23 00:55:11;;;;;;;9.55;5.05;;;;;;;-143.48;67.70;79206.13;5075039;28;20467;-35
2022/09/23 00:57:39;;;;;;;9.73;5.05;;;;;;;-143.48;67.91;79212.09;5075232;28;20051;-36
2022/09/23 01:00:06;;;;;;;9.32;4.90;;;;;;;-143.48;68.24;79218.03;5075326;28;20028;-34
2022/09/23 01:02:31;;;;;;;18.48;5.15;;;;;;;-143.48;68.35;79220.03;5075836;28;20020;-35
2022/09/23 01:04:57;;;;;;;7.35;4.95;;;;;;;-143.48;68.93;79216.06;5075178;28;20036;-33
2022/09/23 01:07:23;;;;;;;10.85;5.38;;;;;;;-143.48;68.49;79225.97;5075220;28;20079;-32
2022/09/23 01:09:49;;;;;;;9.13;4.78;;;;;;;-143.48;68.80;79220.03;5075138;28;20081;-32
2022/09/23 01:12:39;;;;;;;10.48;6.13;;;;;;;-143.48;68.22;79220.03;5075588;28;20493;-35
2022/09/23 01:15:15;;;;;;;10.73;5.78;;;;;;;-143.48;68.33;79210.09;5074262;28;20055;-33
2022/09/23 01:18:03;;;;;;;9.55;5.82;;;;;;;-143.48;68.38;79218.03;5074980;28;20487;-32
2022/09/23 01:20:28;;;;;;;12.00;5.82;;;;;;;-143.48;68.58;79214.06;5074587;28;20036;-33
2022/09/23 01:23:44;;;;;;;12.30;6.07;;;;;;;-143.48;68.34;79206.13;5074210;28;20028;-35
2022/09/23 01:26:39;;;;;;;15.48;5.97;;;;;;;-143.48;67.68;79188.28;5032476;28;20051;-34
2022/09/23 01:29:33;;;;;;;13.35;7.20;;;;;;;-143.48;66.47;79200.19;5074742;28;20025;-34
2022/09/23 01:32:19;;;;;;;12.60;7.03;;;;;;;-143.48;66.78;79188.28;5075000;28;20078;-34
2022/09/23 01:35:06;;;;;;;12.80;7.20;;;;;;;-143.48;66.93;79182.34;5074974;28;20023;-33
2022/09/23 01:37:52;;;;;;;14.02;7.60;;;;;;;-143.48;66.99;79188.28;5074248;28;20117;-35
2022/09/23 01:40:36;;;;;;;16.92;6.95;;;;;;;-143.48;67.30;79198.19;5074849;28;20375;-32
2022/09/23 01:43:10;;;;;;;13.07;6.78;;;;;;;-143.48;67.50;79200.19;5073861;28;20032;-36
2022/09/23 01:45:40;;;;;;;12.15;6.50;;;;;;;-143.48;67.77;79202.16;5056333;28;20032;-34
2022/09/23 01:48:29;;;;;;;10.32;6.28;;;;;;;-143.48;67.98;79214.06;5074564;28;20491;-32
2022/09/23 01:51:11;;;;;;;16.05;6.55;;;;;;;-143.48;68.24;79218.03;5060941;28;20114;-34
2022/09/23 01:53:45;;;;;;;17.33;6.35;;;;;;;-143.48;68.22;79212.09;5074320;28;20383;-33
2022/09/23 01:56:33;;;;;;;12.05;6.18;;;;;;;-143.48;68.15;79216.06;5074211;28;20028;-34
2022/09/23 01:59:09;;;;;;;14.77;6.40;;;;;;;-143.48;68.31;79212.09;5073943;28;20028;-33
2022/09/23 02:01:49;;;;;;;12.90;6.28;;;;;;;-143.48;67.27;79180.34;5074199;28;20375;-33
2022/09/23 02:04:24;;;;;;;12.23;7.20;;;;;;;-143.48;66.96;79166.47;5073781;28;20024;-33
2022/09/23 02:07:16;;;;;;;10.63;6.80;;;;;;;-143.48;65.45;79148.63;5074257;28;20051;-35
2022/09/23 02:09:46;;;;;;;10.85;6.68;;;;;;;-143.48;65.07;79154.56;5055872;28;20016;-33
2022/09/23 02:12:19;;;;;;;10.95;6.95;;;;;;;-143.48;64.92;79146.63;5074252;28;20029;-34
2022/09/23 02:14:57;;;;;;;9.90;6.70;;;;;;;-143.48;65.13;79150.59;5055668;28;20071;-36
2022/09/23 02:17:44;;;;;;;12.13;6.75;;;;;;;-143.48;65.83;79172.41;5073697;28;20104;-34
2022/09/23 02:20:14;;;;;;;15.60;6.75;;;;;;;-143.48;65.68;79170.44;5073642;28;20099;-34
2022/09/23 02:22:50;;;;;;;12.75;7.03;;;;;;;-143.48;65.08;79164.47;5073827;28;20059;-34
2022/09/23 02:25:16;;;;;;;12.90;6.60;;;;;;;-143.48;65.79;79176.38;5074090;28;20078;-34
2022/09/23 02:28:05;;;;;;;14.20;7.22;;;;;;;-143.48;65.85;79172.41;5073847;28;20407;-34
2022/09/23 02:30:41;;;;;;;10.52;6.72;;;;;;;-143.48;65.92;79164.47;5073491;28;20029;-34
2022/09/23 02:33:20;;;;;;;10.18;6.95;;;;;;;-143.48;65.77;79178.38;5073468;28;20028;-34
2022/09/23 02:36:05;;;;;;;11.35;7.07;;;;;;;-143.48;66.14;79178.38;5073921;28;20375;-35
2022/09/23 02:38:50;;;;;;;10.20;7.28;;;;;;;-143.48;66.73;79182.34;5073942;28;20029;-34
2022/09/23 02:41:54;;;;;;;13.80;7.00;;;;;;;-143.48;67.24;79202.16;5056245;28;20448;-33
2022/09/23 02:44:21;;;;;;;13.32;7.50;;;;;;;-143.48;67.99;79214.06;5055792;28;20043;-33
2022/09/23 02:46:49;;;;;;;13.02;6.63;;;;;;;-143.48;68.34;79220.03;5073361;28;20030;-32
2022/09/23 02:49:30;;;;;;;14.10;7.10;;;;;;;-143.48;68.60;79216.06;5073632;28;20091;-33
2022/09/23 02:51:59;;;;;;;10.35;6.65;;;;;;;-143.48;69.09;79222.00;5073813;28;20555;-33
2022/09/23 02:54:27;;;;;;;10.63;6.63;;;;;;;-143.48;68.77;79218.03;5073303;28;20020;-33
2022/09/23 02:56:54;;;;;;;12.18;7.00;;;;;;;-143.48;68.98;79210.09;5076474;28;20066;-34
2022/09/23 02:59:21;;;;;;;11.88;7.63;;;;;;;-143.48;68.69;79214.06;5077608;28;20021;-33
2022/09/23 03:01:55;;;;;;;13.73;7.93;;;;;;;-143.48;68.93;79218.03;5077378;28;20424;-35
2022/09/23 03:04:26;;;;;;;11.35;8.10;;;;;;;-143.48;68.43;79192.25;5077780;28;20039;-36
2022/09/23 03:07:05;;;;;;;13.23;8.07;;;;;;;-143.48;68.34;79186.31;5077195;28;20052;-35
2022/09/23 03:09:49;;;;;;;12.68;8.05;;;;;;;-143.48;68.27;79186.31;5077472;28;20071;-35
2022/09/23 03:12:38;;;;;;;17.70;9.07;;;;;;;-143.48;68.50;79196.22;5077421;28;20067;-35
2022/09/23 03:15:25;;;;;;;13.45;8.38;;;;;;;-143.48;68.53;79192.25;5076987;28;20052;-36
2022/09/23 03:18:08;;;;;;;13.80;8.68;;;;;;;-143.48;68.38;79186.31;5077280;28;20021;-35
2022/09/23 03:20:49;;;;;;;15.13;8.88;;;;;;;-143.48;68.15;79182.34;5077258;28;20505;-36
2022/09/23 03:23:22;;;;;;;15.02;8.88;;;;;;;-143.48;68.00;79178.38;5059463;28;20035;-34
2022/09/23 03:25:49;;;;;;;16.25;9.18;;;;;;;-143.48;67.22;79170.44;5077096;28;20028;-33
2022/09/23 03:28:17;;;;;;;12.43;9.27;;;;;;;-143.48;67.63;79170.44;5076798;28;20379;-34
2022/09/23 03:30:43;;;;;;;15.68;10.27;;;;;;;-143.48;65.82;79140.69;5076966;28;20020;-36
2022/09/23 03:33:12;;;;;;;16.40;9.68;;;;;;;-143.48;64.76;79124.81;5076945;28;20052;-35
2022/09/23 03:38:33;;;;;;;18.77;10.48;;;;;;;-143.48;63.57;79114.88;5077222;28;20039;-34
2022/09/23 03:41:02;;;;;;;17.20;10.15;;;;;;;-143.48;63.94;79104.97;5077046;28;20090;-35
2022/09/23 03:43:28;;;;;;;16.33;10.50;;;;;;;-143.48;63.87;79099.03;5076689;28;20027;-35
2022/09/23 03:45:57;;;;;;;15.25;9.85;;;;;;;-143.48;63.94;79114.88;5077029;28;20033;-33
2022/09/23 03:48:25;;;;;;;14.68;9.90;;;;;;;-143.48;64.41;79116.88;5076799;28;20024;-33
2022/09/23 03:50:50;;;;;;;17.40;10.18;;;;;;;-143.48;64.59;79110.94;5076563;28;20379;-33
2022/09/23 03:53:17;;;;;;;16.58;10.30;;;;;;;-143.48;63.67;79097.03;5076732;28;20031;-32
2022/09/23 03:55:44;;;;;;;20.02;10.40;;;;;;;-143.48;64.01;79101.00;5076590;28;20048;-33
2022/09/23 03:58:10;;;;;;;16.15;10.82;;;;;;;-143.48;64.00;79104.97;5077027;28;20451;-35
2022/09/23 04:00:35;;;;;;;17.98;10.43;;;;;;;-143.48;64.36;79110.94;5076174;28;20028;-35
2022/09/23 04:03:01;;;;;;;16.25;10.60;;;;;;;-143.48;64.32;79112.91;5075979;28;20383;-33
2022/09/23 04:05:26;;;;;;;18.27;11.07;;;;;;;-143.48;64.65;79114.88;5076240;28;20024;-35
2022/09/23 04:07:51;;;;;;;16.98;10.65;;;;;;;-143.48;64.72;79106.97;5057925;28;20070;-35
2022/09/23 04:10:17;;;;;;;16.33;10.13;;;;;;;-143.48;64.28;79087.13;5076905;28;20097;-34
2022/09/23 04:12:43;;;;;;;16.60;10.52;;;;;;;-143.48;64.17;79085.13;5076276;28;20020;-36
2022/09/23 04:15:09;;;;;;;17.45;10.52;;;;;;;-143.48;63.97;79083.16;5075724;28;20131;-34
2022/09/23 04:17:35;;;;;;;16.95;10.38;;;;;;;-143.48;64.12;79087.13;5076365;28;20072;-34
2022/09/23 04:20:01;;;;;;;13.73;10.02;;;;;;;-143.48;63.64;79071.25;5075824;28;20063;-33
2022/09/23 04:22:26;;;;;;;19.30;10.45;;;;;;;-143.48;63.43;79067.28;5076042;28;20038;-35
2022/09/23 04:24:53;;;;;;;13.32;10.13;;;;;;;-143.48;63.47;79065.31;5075927;28;20024;-34
2022/09/23 04:27:18;;;;;;;16.58;10.25;;;;;;;-143.48;63.64;79077.19;5075981;28;20127;-35
2022/09/23 04:29:44;;;;;;;13.82;9.77;;;;;;;-143.48;63.68;79063.31;5075694;28;20471;-34
2022/09/23 04:32:09;;;;;;;17.35;10.50;;;;;;;-143.48;63.55;79055.38;5075944;28;20025;-34
2022/09/23 04:34:34;;;;;;;16.08;10.40;;;;;;;-143.48;63.13;79041.50;5075515;28;20021;-36
2022/09/23 04:36:59;;;;;;;16.77;10.57;;;;;;;-143.48;62.86;79043.47;5075458;28;20464;-36
2022/09/23 04:39:25;;;;;;;19.90;10.57;;;;;;;-143.48;62.84;79045.47;5076029;28;20028;-34
2022/09/23 04:41:50;;;;;;;18.15;10.40;;;;;;;-143.48;63.06;79045.47;5075752;28;20408;-34
2022/09/23 04:44:16;;;;;;;16.30;10.30;;;;;;;-143.48;63.21;79057.38;5075183;28;20043;-34
2022/09/23 04:46:46;;;;;;;16.08;10.48;;;;;;;-143.48;63.15;79051.41;5075326;28;20024;-34
2022/09/23 04:49:13;;;;;;;15.27;9.73;;;;;;;-143.48;63.34;79051.41;5075280;28;20028;-34
2022/09/23 04:51:42;;;;;;;17.73;10.15;;;;;;;-143.48;62.97;79043.47;5075592;28;20158;-34
2022/09/23 04:54:09;;;;;;;16.40;10.50;;;;;;;-143.48;63.13;79033.56;5075980;28;20012;-37
2022/09/23 04:56:35;;;;;;;17.95;10.70;;;;;;;-143.48;63.36;79047.44;5075453;28;20448;-34
2022/09/23 04:59:00;;;;;;;19.77;10.27;;;;;;;-143.48;63.54;79041.50;5074935;28;20031;-33
2022/09/23 05:01:30;;;;;;;16.50;10.50;;;;;;;-143.48;63.19;79043.47;5075329;28;20033;-34
2022/09/23 05:04:00;;;;;;;17.13;10.45;;;;;;;-143.48;63.55;79037.53;5074935;28;20020;-36
2022/09/23 05:06:26;;;;;;;17.55;10.38;;;;;;;-143.48;63.18;79027.63;5074881;28;20031;-33
2022/09/23 05:08:53;;;;;;;16.83;10.75;;;;;;;-143.48;63.36;79039.53;5075295;28;20021;-34
2022/09/23 05:11:19;;;;;;;15.15;10.50;;;;;;;-143.48;63.48;79033.56;5075324;28;20082;-34
2022/09/23 05:13:49;;;;;;;17.30;10.63;;;;;;;-143.48;63.30;79031.59;5074842;28;20070;-34
2022/09/23 05:16:17;;;;;;;16.95;10.77;;;;;;;-143.48;63.17;79039.53;5074918;28;20529;-33
2022/09/23 05:18:44;;;;;;;19.67;11.10;;;;;;;-143.48;63.50;79047.44;5074249;28;20033;-33
2022/09/23 05:21:11;;;;;;;18.77;11.00;;;;;;;-143.48;63.08;79033.56;5057166;28;20043;-33
2022/09/23 05:23:37;;;;;;;18.98;10.88;;;;;;;-143.48;63.02;79035.56;5074152;28;20021;-33
2022/09/23 05:26:06;;;;;;;16.83;10.30;;;;;;;-143.48;63.00;79035.56;5073750;28;20519;-33
2022/09/23 05:28:32;;;;;;;19.13;10.38;;;;;;;-143.48;63.27;79021.66;5073528;28;20032;-34
2022/09/23 05:31:05;;;;;;;17.42;11.00;;;;;;;-143.48;63.32;79035.56;5074219;28;20024;-36
2022/09/23 05:33:31;;;;;;;18.27;10.53;;;;;;;-143.48;63.73;79053.41;5074026;28;20028;-35
2022/09/23 05:35:57;;;;;;;15.68;10.43;;;;;;;-143.48;63.38;79051.41;5074050;28;20273;-34
2022/09/23 05:38:22;;;;;;;17.42;11.10;;;;;;;-143.48;63.68;79053.41;5074267;28;20103;-34
2022/09/23 05:40:55;;;;;;;17.27;10.40;;;;;;;-143.48;63.64;79027.63;5056781;28;20033;-34
2022/09/23 05:43:20;;;;;;;20.13;10.75;;;;;;;-143.48;63.48;79031.59;5074219;28;20110;-35
2022/09/23 05:45:45;;;;;;;17.70;10.68;;;;;;;-143.48;63.64;79033.56;5074519;28;20070;-34
2022/09/23 05:48:11;;;;;;;19.95;10.70;;;;;;;-143.48;63.34;79033.56;5073932;28;20032;-35
2022/09/23 05:50:36;;;;;;;15.55;10.00;;;;;;;-143.48;63.34;79031.59;5074183;28;20021;-34
2022/09/23 05:53:01;;;;;;;17.45;10.60;;;;;;;-143.48;63.17;79021.66;5074057;28;20028;-33
2022/09/23 05:55:27;;;;;;;20.10;10.43;;;;;;;-143.48;63.35;79021.66;5073835;28;20388;-35
2022/09/23 05:57:52;;;;;;;15.32;10.02;;;;;;;-143.48;63.24;79013.72;5073938;28;20027;-35
2022/09/23 06:00:18;;;;;;;15.90;10.27;;;;;;;-143.48;63.21;78999.84;5073654;28;20379;-34
2022/09/23 06:02:43;;;;;;;19.50;10.27;;;;;;;-143.48;63.24;78987.94;5073569;28;20423;-34
2022/09/23 06:05:08;;;;;;;16.42;10.27;;;;;;;-143.48;63.08;78997.88;5073381;28;20436;-33
2022/09/23 06:07:34;;;;;;;15.68;10.23;;;;;;;-143.48;62.89;79003.81;5073846;28;20024;-34
2022/09/23 06:09:59;;;;;;;17.73;9.80;;;;;;;-143.48;63.08;79023.66;5073814;28;20391;-35
2022/09/23 06:12:24;;;;;;;17.90;10.60;;;;;;;-143.48;63.24;79017.69;5073725;28;20320;-34
2022/09/23 06:14:49;;;;;;;19.10;11.00;;;;;;;-143.48;62.83;78997.88;5073634;28;20093;-34
2022/09/23 06:17:15;;;;;;;19.10;10.25;;;;;;;-143.48;62.82;78997.88;5073903;28;20468;-34
2022/09/23 06:19:40;;;;;;;18.95;10.40;;;;;;;-143.48;63.11;78982.00;5073838;28;20035;-34
2022/09/23 06:22:05;;;;;;;18.55;10.32;;;;;;;-143.48;62.83;78980.00;5073839;28;20032;-34
2022/09/23 06:24:31;;;;;;;16.67;9.90;;;;;;;-143.48;62.51;78976.03;5055474;28;20520;-34
2022/09/23 06:26:56;;;;;;;16.30;10.13;;;;;;;-143.48;62.57;78980.00;5055375;28;20029;-33
2022/09/23 06:29:21;;;;;;;17.75;10.77;;;;;;;-143.48;62.74;78980.00;5073286;28;20082;-34
2022/09/23 06:31:48;;;;;;;18.45;10.88;;;;;;;-143.48;62.61;78960.19;5073340;28;20363;-33
2022/09/23 06:34:13;;;;;;;15.40;9.55;;;;;;;-143.48;62.11;78950.25;5073518;28;20035;-34
2022/09/23 06:36:40;;;;;;;18.17;10.45;;;;;;;-143.48;62.07;78944.31;5073512;28;20020;-35
2022/09/23 06:39:06;;;;;;;19.17;10.48;;;;;;;-143.48;61.85;78930.41;5073581;28;20043;-34
2022/09/23 06:41:31;;;;;;;14.18;9.73;;;;;;;-143.48;61.70;78926.47;5073971;28;20452;-34
2022/09/23 06:43:56;;;;;;;19.42;10.15;;;;;;;-143.48;61.53;78938.34;5073161;28;20107;-35
2022/09/23 06:46:22;;;;;;;14.80;9.63;;;;;;;-143.48;61.85;78934.38;5073824;28;20052;-35
2022/09/23 06:48:48;;;;;;;16.13;10.10;;;;;;;-143.48;61.12;78914.56;5073463;28;20367;-34
2022/09/23 06:51:18;;;;;;;17.70;10.32;;;;;;;-143.48;61.08;78904.63;5073528;28;20475;-34
2022/09/23 06:53:47;;;;;;;17.73;9.82;;;;;;;-143.48;60.97;78894.72;5073248;28;20463;-33
2022/09/23 06:56:13;;;;;;;16.90;10.20;;;;;;;-143.48;60.62;78878.84;5073316;28;20025;-33
2022/09/23 06:58:39;;;;;;;16.23;10.05;;;;;;;-143.48;60.70;78882.81;5073156;28;20072;-34
2022/09/23 07:01:07;;;;;;;17.17;9.85;;;;;;;-143.48;60.80;78900.66;5073102;28;20050;-35
2022/09/23 07:03:34;;;;;;;14.80;10.20;;;;;;;-143.48;60.49;78878.84;5073537;28;20063;-33
2022/09/23 07:06:00;;;;;;;15.30;9.85;;;;;;;-143.48;60.56;78876.88;5073650;28;20020;-34
2022/09/23 07:08:27;;;;;;;16.52;9.25;;;;;;;-143.48;59.72;78857.03;5073402;28;20035;-34
2022/09/23 07:10:54;;;;;;;17.00;9.75;;;;;;;-143.48;60.05;78864.97;5073504;28;20024;-34
2022/09/23 07:13:20;;;;;;;14.82;9.98;;;;;;;-143.48;59.35;78829.25;5055010;28;20029;-34
2022/09/23 07:15:54;;;;;;;17.83;10.00;;;;;;;-143.48;59.00;78835.22;5072841;28;20117;-34
2022/09/23 07:18:22;;;;;;;15.70;9.80;;;;;;;-143.48;59.28;78823.31;5073056;28;20035;-33
2022/09/23 07:20:49;;;;;;;17.67;9.98;;;;;;;-143.48;58.48;78781.66;5072878;28;20017;-34
2022/09/23 07:23:14;;;;;;;17.05;10.45;;;;;;;-143.48;58.12;78797.53;5073290;28;20031;-33
2022/09/23 07:25:41;;;;;;;13.43;9.32;;;;;;;-143.48;57.89;78775.72;5073156;28;20020;-33
2022/09/23 07:28:07;;;;;;;16.00;9.65;;;;;;;-143.48;57.32;78730.09;5073110;28;20016;-33
2022/09/23 07:30:36;;;;;;;14.82;9.57;;;;;;;-143.48;55.79;78682.50;5072392;28;20138;-34
2022/09/23 07:33:01;;;;;;;14.05;9.60;;;;;;;-143.48;54.92;78640.84;5072802;28;20467;-34
2022/09/23 07:35:26;;;;;;;13.05;8.88;;;;;;;-143.48;54.13;78626.97;5072824;28;20021;-34
2022/09/23 07:37:52;;;;;;;14.90;9.30;;;;;;;-143.48;54.64;78621.00;5073061;28;20025;-34
2022/09/23 07:40:17;;;;;;;14.75;8.77;;;;;;;-143.48;53.55;78589.28;5073468;28;20025;-34
2022/09/23 07:42:43;;;;;;;15.10;9.00;;;;;;;-143.48;53.61;78595.22;5075456;28;20021;-35
2022/09/23 07:45:08;;;;;;;15.88;8.95;;;;;;;-143.48;53.50;78607.13;5076437;28;20032;-34
2022/09/23 07:47:34;;;;;;;15.57;9.07;;;;;;;-143.48;54.06;78595.22;5076670;28;20060;-34
2022/09/23 07:49:59;;;;;;;16.08;9.23;;;;;;;-143.48;52.90;78575.41;5076329;28;20040;-35
2022/09/23 07:52:24;;;;;;;16.05;8.88;;;;;;;-143.48;51.80;78527.78;5076367;28;20027;-34
2022/09/23 07:54:50;;;;;;;16.05;8.77;;;;;;;-143.48;51.96;78504.00;5076252;28;20017;-34
2022/09/23 07:57:16;;;;;;;17.80;9.15;;;;;;;-143.48;50.53;78450.44;5076540;28;20539;-35
2022/09/23 07:59:42;;;;;;;15.27;8.88;;;;;;;-143.48;50.55;78422.69;5076754;28;20403;-34
2022/09/23 08:02:08;;;;;;;15.43;8.63;;;;;;;-143.48;50.45;78452.44;5076521;28;20028;-34
2022/09/23 08:04:34;;;;;;;14.57;8.75;;;;;;;-143.48;50.95;78519.88;5076005;28;20031;-35
2022/09/23 08:07:02;;;;;;;15.82;8.10;;;;;;;-143.48;51.69;78535.72;5058122;28;20024;-34
2022/09/23 08:09:38;;;;;;;17.90;8.77;;;;;;;-143.48;51.52;78504.00;5076370;28;20455;-34
2022/09/23 08:12:04;;;;;;;15.57;8.20;;;;;;;-143.48;51.55;78517.88;5076053;28;20356;-34
2022/09/23 08:14:29;;;;;;;13.98;8.65;;;;;;;-143.48;52.10;78543.66;5075473;28;20016;-34
2022/09/23 08:16:55;;;;;;;12.73;8.05;;;;;;;-143.48;51.68;78504.00;5076028;28;20029;-34
2022/09/23 08:19:20;;;;;;;14.90;8.02;;;;;;;-143.48;50.58;78462.34;5076047;28;20421;-34
2022/09/23 08:21:46;;;;;;;12.98;8.30;;;;;;;-143.48;51.11;78500.03;5075769;28;20030;-34
2022/09/23 08:24:17;;;;;;;25.58;8.23;;;;;;;-143.48;50.33;78450.44;5075668;28;20020;-36
2022/09/23 08:26:44;;;;;;;12.30;7.72;;;;;;;-143.48;49.77;78416.72;5076020;28;20032;-36
2022/09/23 08:29:14;;;;;;;14.73;7.95;;;;;;;-143.48;49.09;78349.31;5075600;28;20055;-34
2022/09/23 08:31:39;;;;;;;12.60;8.10;;;;;;;-143.48;48.43;78321.53;5075564;28;20032;-36
2022/09/23 08:34:05;;;;;;;11.60;7.88;;;;;;;-143.48;47.80;78271.97;5075723;28;20102;-33
2022/09/23 08:36:31;;;;;;;12.10;8.23;;;;;;;-143.48;46.15;78200.56;5075092;28;20044;-33
2022/09/23 08:38:56;;;;;;;15.02;7.97;;;;;;;-143.48;46.46;78273.94;5075614;28;20028;-36
2022/09/23 08:41:42;;;;;;;20.98;8.25;;;;;;;-143.48;47.21;78285.84;5075344;28;20024;-34
2022/09/23 08:44:36;;;;;;;12.60;7.72;;;;;;;-143.48;46.51;78240.22;5075221;28;20025;-34
2022/09/23 08:47:13;;;;;;;13.48;8.10;;;;;;;-143.48;46.80;78262.03;5063860;28;20400;-34
2022/09/23 08:49:49;;;;;;;12.10;7.85;;;;;;;-143.48;47.80;78315.59;5075467;28;20033;-34
2022/09/23 08:52:22;;;;;;;15.07;7.75;;;;;;;-143.48;48.36;78317.56;5042225;28;20028;-35
2022/09/23 08:54:48;;;;;;;;;;;;;;;-143.48;48.82;78341.38;5057192;28;20048;-34
2022/09/23 08:57:31;;;;;;;14.00;8.00;;;;;;;-143.48;48.60;78307.66;5075342;28;20350;-34
2022/09/23 08:59:58;;;;;;;13.43;7.53;;;;;;;-143.48;48.52;78349.31;5057154;28;20027;-34
2022/09/23 09:02:23;;;;;;;12.93;7.53;;;;;;;-143.48;48.63;78349.31;5057128;28;20028;-35
2022/09/23 09:04:56;;;;;;;14.45;7.47;;;;;;;-143.48;48.58;78289.81;5057125;28;20028;-34
2022/09/23 09:07:31;;;;;;;14.15;7.75;;;;;;;-143.48;47.58;78269.97;5074981;28;20132;-33
2022/09/23 09:10:10;;;;;;;14.73;7.63;;;;;;;-143.48;48.30;78307.66;5074830;28;20161;-34
2022/09/23 09:13:15;;;;;;;11.68;7.22;;;;;;;-143.48;47.34;78238.25;5075380;28;20379;-33
2022/09/23 09:15:50;;;;;;;12.85;7.43;;;;;;;-143.48;47.17;78236.25;5075010;28;20072;-37
2022/09/23 09:18:19;;;;;;;18.63;8.07;;;;;;;-143.48;47.14;78244.19;5074763;28;20029;-34
2022/09/23 09:20:57;;;;;;;15.00;7.80;;;;;;;-143.48;46.68;78220.41;5074910;28;20031;-34
2022/09/23 09:23:42;;;;;;;17.13;7.90;;;;;;;-143.48;45.37;78125.22;5074795;28;20024;-34
2022/09/23 09:26:15;;;;;;;15.73;7.15;;;;;;;-143.48;46.57;78168.84;5074887;28;20033;-34
2022/09/23 09:29:01;;;;;;;12.50;6.80;;;;;;;-143.48;46.07;78154.94;5074605;28;20103;-36
2022/09/23 09:31:34;;;;;;;15.00;7.35;;;;;;;-143.48;46.28;78166.84;5074926;28;20033;-34
2022/09/23 09:34:28;;;;;;;10.73;7.10;;;;;;;-143.48;48.09;78295.75;5074266;28;20016;-34
2022/09/23 09:37:00;;;;;;;10.52;7.03;;;;;;;-143.48;48.37;78299.72;5074155;28;20032;-34
2022/09/23 09:39:26;;;;;;;;;;;;;;;-143.48;49.03;78327.50;5074871;28;20077;-34
2022/09/23 09:41:52;;;;;;;12.57;7.20;;;;;;;-143.48;48.74;78287.81;5074156;28;20359;-35
2022/09/23 09:44:38;;;;;;;17.33;7.13;;;;;;;-143.48;48.85;78307.66;5073920;28;20024;-34
2022/09/23 09:47:25;;;;;;;15.43;7.40;;;;;;;-143.48;49.25;78305.66;5074464;28;20029;-34
2022/09/23 09:50:00;;;;;;;12.20;7.40;;;;;;;-143.48;49.70;78303.69;5074626;28;20027;-34
2022/09/23 09:52:28;;;;;;;13.88;6.60;;;;;;;-143.48;50.31;78317.56;5073998;28;20125;-35
2022/09/23 09:55:01;;;;;;;14.35;7.15;;;;;;;-143.48;50.42;78353.28;5074145;28;20024;-34
2022/09/23 09:57:30;;;;;;;13.98;7.35;;;;;;;-143.48;51.37;78371.13;5057461;28;20475;-36
2022/09/23 09:59:56;;;;;;;12.85;7.38;;;;;;;-143.48;51.23;78353.28;5073955;28;20025;-34
2022/09/23 10:02:28;;;;;;;17.33;7.93;;;;;;;-143.48;51.05;78347.31;5074338;28;20482;-35
2022/09/23 10:05:06;;;;;;;21.77;7.55;;;;;;;-143.48;51.57;78331.44;5073853;28;20028;-35
2022/09/23 10:07:33;;;;;;;14.80;7.00;;;;;;;-143.48;51.31;78343.34;5073983;28;20047;-34
2022/09/23 10:10:17;;;;;;;15.90;7.38;;;;;;;-143.48;51.95;78341.38;5073622;28;20024;-36
2022/09/23 10:12:48;;;;;;;13.25;7.30;;;;;;;-143.48;51.70;78329.47;5074064;28;20119;-34
2022/09/23 10:15:41;;;;;;;15.40;7.32;;;;;;;-143.48;51.09;78297.75;5073418;28;20106;-35
2022/09/23 10:18:18;;;;;;;15.70;7.28;;;;;;;-143.48;50.88;78281.88;5073617;28;20132;-34
2022/09/23 10:20:45;;;;;;;12.40;7.10;;;;;;;-143.48;51.37;78281.88;5074272;28;20020;-34
2022/09/23 10:23:19;;;;;;;14.85;7.15;;;;;;;-143.48;51.14;78281.88;5073668;28;20025;-34
2022/09/23 10:25:55;;;;;;;14.82;6.75;;;;;;;-143.48;51.24;78256.09;5073805;28;20035;-36
2022/09/23 10:28:38;;;;;;;14.70;7.20;;;;;;;-143.48;51.19;78275.94;5073914;28;20032;-34
2022/09/23 10:31:10;;;;;;;21.58;7.10;;;;;;;-143.48;51.51;78271.97;5073328;28;20021;-34
2022/09/23 10:33:48;;;;;;;14.15;6.85;;;;;;;-143.48;51.20;78269.97;5055514;28;20020;-36
2022/09/23 10:36:15;;;;;;;13.75;6.65;;;;;;;-143.48;51.37;78264.03;5072850;28;20074;-35
2022/09/23 10:38:41;;;;;;;11.90;6.30;;;;;;;-143.48;51.14;78266.00;5073525;28;20055;-35
2022/09/23 10:47:28;;;;;;;10.15;6.13;;;;;;;-143.48;49.81;78166.84;5074202;28;20043;-34
2022/09/23 10:49:58;;;;;;;11.48;5.90;;;;;;;-143.48;48.52;78188.66;5073761;28;20024;-34
2022/09/23 10:52:53;;;;;;;8.90;5.22;;;;;;;-143.48;48.43;78196.59;5073171;28;20028;-34
2022/09/23 10:55:27;;;;;;;12.20;5.35;;;;;;;-143.48;48.58;78174.78;5073883;28;20582;-35
2022/09/23 10:58:29;;;;;;;11.05;5.40;;;;;;;-143.48;47.97;78154.94;5073156;28;20036;-33
2022/09/23 11:01:25;;;;;;;13.95;5.50;;;;;;;-143.48;48.34;78170.81;5072763;28;20490;-33
2022/09/23 11:04:33;;;;;;;12.40;5.30;;;;;;;-143.48;48.40;78164.88;5054793;28;20035;-34
2022/09/23 11:07:19;;;;;;;11.02;5.20;;;;;;;-143.48;48.23;78180.72;5072517;28;20037;-33
2022/09/23 11:10:06;;;;;;;9.05;5.25;;;;;;;-143.48;49.32;78184.69;5073403;28;20025;-34
2022/09/23 11:12:49;;;;;;;9.90;5.40;;;;;;;-143.48;49.05;78170.81;5072444;28;20391;-34
2022/09/23 11:15:39;;;;;;;11.00;5.28;;;;;;;-143.48;50.14;78184.69;5072722;28;20116;-34
2022/09/23 11:18:11;;;;;;;12.43;5.40;;;;;;;-143.48;49.01;78170.81;5076671;28;20032;-34
2022/09/23 11:20:46;;;;;;;13.23;5.68;;;;;;;-143.48;49.04;78194.63;5077209;28;20482;-35
2022/09/23 11:23:49;;;;;;;12.70;5.60;;;;;;;-143.48;49.09;78164.88;5077174;28;20108;-33
2022/09/23 11:26:40;;;;;;;10.00;5.20;;;;;;;-143.48;48.69;78166.84;5063563;28;20074;-34
2022/09/23 11:29:23;;;;;;;12.18;5.75;;;;;;;-143.48;49.15;78158.91;5076107;28;20028;-34
2022/09/23 11:32:14;;;;;;;15.10;5.50;;;;;;;-143.48;48.63;78133.13;5061124;28;20021;-34
2022/09/23 11:35:10;;;;;;;12.93;5.78;;;;;;;-143.48;48.28;78121.25;5058873;28;20039;-34
2022/09/23 11:37:41;;;;;;;10.63;5.95;;;;;;;-143.48;48.09;78121.25;5058260;28;20114;-34
2022/09/23 11:40:15;;;;;;;13.48;6.20;;;;;;;-143.48;49.42;78143.06;5075722;28;20032;-37